Airfield :
LOGIN :

Register | Disclaimer

   EN    FR    IT 

 










Legend :    VFR   Marginal VFR   IFR   Intensive IFR   Very Intensive IFR
Visi :
Ceiling :
>= 8 km
>= 3000ft
5 to 8 km
1000 to 3000 ft
1500m to 5 km
500 to 1000 ft
800 to 1500m
200 to 500 ft
< 800m
< 200 ft
Symbols :   Thunderstorms  Fog  Heavy snow  Heavy precipitations  Wind > 20 kt
SIGMETs :     Misc.  Thunderstorms  Icing  Turbulence  Mountain Waves  Volcanic Ashes






- Airport Elevation : 69 ft
- AIRPORT CLOSED.


EGXS - RAF Swinderby

CURRENT METAR :
  • 200250Z AUTO 33020KT 9999 // FEW034/// OVC051/// 06/01 Q1025

EXPIRED METARs :
  • 200220Z AUTO 32022KT 9999 // FEW017/// BKN051/// 05/02 Q1024
  • 200150Z AUTO 33023KT 9999 FEW031/// SCT050/// 06/01 Q1024
  • 200120Z AUTO 33024KT 9999 FEW030/// BKN048/// 06/02 Q1024
  • 200050Z AUTO 32023KT 9999 FEW029/// BKN053/// 06/01 Q1024
  • 200020Z AUTO 34029KT 9999 // SCT049/// 06/01 Q1024
  • 192350Z AUTO 34028KT 9999 // BKN024/// 06/02 Q1024
  • 192320Z AUTO 33021KT 9999 // FEW035/// SCT045/// 06/01 Q1023
  • 192250Z AUTO 34028G41KT 9999 // FEW017/// OVC039/// 06/02 Q1024
  • 192220Z AUTO 33025KT 9999 OVC032/// 07/01 Q1023

TAF N/A



MET'MAP, your aeronautical weather chart ! - Copyright ORBIFLY December 2007 - Disclaimer

ORBIFLY MET'MAP TEAM :

Programming & Development : Alexandra Zaïnal
Original concept : Baudouin d'Aumeries
Technical & hardware support : Manuel Goepfert
Assistance : Marc-Olivier Méhu




SOURCES & CREDITS :

   NOAA